Time,TemperatureF,DewpointF,PressureIn,WindDirection,WindDirectionDegrees,WindSpeedMPH,WindSpeedGustMPH,Humidity,HourlyPrecipIn,Conditions,Clouds,dailyrainin,SolarRadiationWatts/m^2,SoftwareType,DateUTC
2013-08-21 00:05:00,74.0,70.9,29.79,South,182,4.0,5.0,90,0.00,,,0.00,0,Wunderground v.1.15,2013-08-21 05:05:00,
2013-08-21 00:15:00,74.0,70.9,29.78,SW,217,5.0,7.0,90,0.00,,,0.00,0,Wunderground v.1.15,2013-08-21 05:15:00,
2013-08-21 00:25:00,73.8,70.7,29.78,South,179,5.0,7.0,90,0.00,,,0.00,0,Wunderground v.1.15,2013-08-21 05:25:00,
2013-08-21 00:30:00,73.8,70.7,29.78,South,171,5.0,7.0,90,0.00,,,0.00,0,Wunderground v.1.15,2013-08-21 05:30:00,
2013-08-21 00:35:00,73.7,70.6,29.78,South,187,6.0,7.0,90,0.00,,,0.00,0,Wunderground v.1.15,2013-08-21 05:35:00,
2013-08-21 00:45:00,73.5,70.4,29.79,SSW,209,4.0,7.0,90,0.00,,,0.00,0,Wunderground v.1.15,2013-08-21 05:45:00,
2013-08-21 00:50:00,73.4,70.6,29.79,SW,215,3.0,3.0,91,0.00,,,0.00,0,Wunderground v.1.15,2013-08-21 05:50:00,
2013-08-21 00:55:00,73.2,70.4,29.79,South,185,3.0,3.0,91,0.00,,,0.00,0,Wunderground v.1.15,2013-08-21 05:55:00,
2013-08-21 01:05:00,73.1,70.3,29.79,South,169,4.0,8.0,91,0.00,,,0.00,0,Wunderground v.1.15,2013-08-21 06:05:00,
2013-08-21 01:15:00,73.0,70.2,29.79,SSW,199,5.0,5.0,91,0.00,,,0.00,0,Wunderground v.1.15,2013-08-21 06:15:00,
2013-08-21 01:20:00,72.8,70.0,29.78,SSW,208,4.0,5.0,91,0.00,,,0.00,0,Wunderground v.1.15,2013-08-21 06:20:00,
2013-08-21 01:25:00,72.6,69.8,29.78,SSW,193,4.0,5.0,91,0.00,,,0.00,0,Wunderground v.1.15,2013-08-21 06:25:00,
2013-08-21 01:30:00,72.5,69.7,29.79,South,180,4.0,4.0,91,0.00,,,0.00,0,Wunderground v.1.15,2013-08-21 06:30:00,
2013-08-21 01:40:00,72.1,69.6,29.79,SSW,203,3.0,4.0,92,0.00,,,0.00,0,Wunderground v.1.15,2013-08-21 06:40:00,
2013-08-21 01:45:00,72.1,69.6,29.79,SSW,192,3.0,4.0,92,0.00,,,0.00,0,Wunderground v.1.15,2013-08-21 06:45:00,
2013-08-21 01:50:00,72.0,69.5,29.78,South,190,3.0,4.0,92,0.00,,,0.00,0,Wunderground v.1.15,2013-08-21 06:50:00,
2013-08-21 01:55:00,71.9,69.4,29.79,SSW,207,3.0,4.0,92,0.00,,,0.00,0,Wunderground v.1.15,2013-08-21 06:55:00,
2013-08-21 02:05:00,71.7,69.3,29.78,SW,214,3.0,6.0,92,0.00,,,0.00,0,Wunderground v.1.15,2013-08-21 07:05:00,
2013-08-21 02:15:00,71.7,69.3,29.78,SSW,206,4.0,7.0,92,0.00,,,0.00,0,Wunderground v.1.15,2013-08-21 07:15:00,
2013-08-21 02:20:00,71.7,69.3,29.78,SW,219,5.0,5.0,92,0.00,,,0.00,0,Wunderground v.1.15,2013-08-21 07:20:00,
2013-08-21 02:25:00,71.6,69.2,29.78,SSW,202,4.0,5.0,92,0.00,,,0.00,0,Wunderground v.1.15,2013-08-21 07:25:00,
2013-08-21 02:30:00,71.5,69.1,29.78,SSW,204,3.0,5.0,92,0.00,,,0.00,0,Wunderground v.1.15,2013-08-21 07:30:00,
2013-08-21 02:40:00,71.4,69.0,29.78,South,191,3.0,4.0,92,0.00,,,0.00,0,Wunderground v.1.15,2013-08-21 07:40:00,
2013-08-21 02:50:00,71.3,68.9,29.78,South,183,5.0,7.0,92,0.00,,,0.00,0,Wunderground v.1.15,2013-08-21 07:50:00,
2013-08-21 02:55:00,71.3,68.9,29.77,SW,219,5.0,7.0,92,0.00,,,0.00,0,Wunderground v.1.15,2013-08-21 07:55:00,
2013-08-21 03:05:00,71.1,68.7,29.77,SSW,192,4.0,5.0,92,0.00,,,0.00,0,Wunderground v.1.15,2013-08-21 08:05:00,
2013-08-21 03:15:00,71.0,68.2,29.77,SSW,202,5.0,5.0,91,0.00,,,0.00,0,Wunderground v.1.15,2013-08-21 08:15:00,
2013-08-21 03:20:00,71.0,68.2,29.77,SW,220,5.0,5.0,91,0.00,,,0.00,0,Wunderground v.1.15,2013-08-21 08:20:00,
2013-08-21 03:25:00,71.0,68.2,29.77,SSW,198,4.0,5.0,91,0.00,,,0.00,0,Wunderground v.1.15,2013-08-21 08:25:00,
2013-08-21 03:30:00,70.9,68.1,29.77,SSW,200,4.0,4.0,91,0.00,,,0.00,0,Wunderground v.1.15,2013-08-21 08:30:00,
2013-08-21 03:40:00,70.8,68.0,29.77,South,190,3.0,3.0,91,0.00,,,0.00,0,Wunderground v.1.15,2013-08-21 08:40:00,
2013-08-21 03:45:00,70.8,68.4,29.77,South,169,4.0,6.0,92,0.00,,,0.00,0,Wunderground v.1.15,2013-08-21 08:45:00,
2013-08-21 03:50:00,70.7,68.3,29.77,SSW,200,4.0,4.0,92,0.00,,,0.00,0,Wunderground v.1.15,2013-08-21 08:50:00,
2013-08-21 03:55:00,70.6,68.2,29.76,SSW,198,4.0,5.0,92,0.00,,,0.00,0,Wunderground v.1.15,2013-08-21 08:55:00,
2013-08-21 04:00:00,70.5,68.1,29.76,SSW,192,4.0,7.0,92,0.00,,,0.00,0,Wunderground v.1.15,2013-08-21 09:00:00,
2013-08-21 04:05:00,70.4,68.0,29.76,SW,218,5.0,7.0,92,0.00,,,0.00,0,Wunderground v.1.15,2013-08-21 09:05:00,
2013-08-21 04:15:00,70.3,67.9,29.76,South,186,5.0,5.0,92,0.00,,,0.00,0,Wunderground v.1.15,2013-08-21 09:15:00,
2013-08-21 04:20:00,70.2,67.8,29.76,SW,223,4.0,4.0,92,0.00,,,0.00,0,Wunderground v.1.15,2013-08-21 09:20:00,
2013-08-21 04:25:00,70.2,67.8,29.76,SSW,206,4.0,4.0,92,0.00,,,0.00,0,Wunderground v.1.15,2013-08-21 09:25:00,
2013-08-21 04:30:00,70.2,67.8,29.76,SSW,208,4.0,4.0,92,0.00,,,0.00,0,Wunderground v.1.15,2013-08-21 09:30:00,
2013-08-21 04:40:00,70.0,67.6,29.76,SSW,208,3.0,3.0,92,0.00,,,0.00,0,Wunderground v.1.15,2013-08-21 09:40:00,
2013-08-21 04:45:00,69.9,67.5,29.76,South,190,2.0,3.0,92,0.00,,,0.00,0,Wunderground v.1.15,2013-08-21 09:45:00,
2013-08-21 04:50:00,69.8,67.4,29.76,SSW,196,2.0,2.0,92,0.00,,,0.00,0,Wunderground v.1.15,2013-08-21 09:50:00,
2013-08-21 05:00:00,69.7,67.3,29.76,SW,227,2.0,2.0,92,0.00,,,0.00,0,Wunderground v.1.15,2013-08-21 10:00:00,
2013-08-21 05:05:00,69.7,67.3,29.77,SW,217,2.0,2.0,92,0.00,,,0.00,0,Wunderground v.1.15,2013-08-21 10:05:00,
2013-08-21 05:15:00,70.0,67.6,29.77,SW,223,4.0,4.0,92,0.00,,,0.00,0,Wunderground v.1.15,2013-08-21 10:15:00,
2013-08-21 05:20:00,70.2,67.8,29.76,South,187,4.0,4.0,92,0.00,,,0.00,0,Wunderground v.1.15,2013-08-21 10:20:00,
2013-08-21 05:25:00,70.4,67.6,29.77,SSW,207,4.0,4.0,91,0.00,,,0.00,0,Wunderground v.1.15,2013-08-21 10:25:00,
2013-08-21 05:30:00,70.4,67.6,29.77,SW,229,5.0,5.0,91,0.00,,,0.00,0,Wunderground v.1.15,2013-08-21 10:30:00,
2013-08-21 05:40:00,70.6,67.8,29.77,SW,229,4.0,6.0,91,0.00,,,0.00,0,Wunderground v.1.15,2013-08-21 10:40:00,
2013-08-21 05:45:00,70.7,67.9,29.77,SSW,193,5.0,8.0,91,0.00,,,0.00,0,Wunderground v.1.15,2013-08-21 10:45:00,
2013-08-21 05:50:00,70.8,68.0,29.78,SW,228,7.0,8.0,91,0.00,,,0.00,0,Wunderground v.1.15,2013-08-21 10:50:00,
2013-08-21 05:55:00,70.8,68.0,29.78,SSW,211,7.0,8.0,91,0.00,,,0.00,0,Wunderground v.1.15,2013-08-21 10:55:00,
2013-08-21 06:05:00,70.8,67.7,29.77,SW,227,6.0,7.0,90,0.00,,,0.00,0,Wunderground v.1.15,2013-08-21 11:05:00,
2013-08-21 06:15:00,70.5,67.7,29.77,South,180,3.0,4.0,91,0.00,,,0.00,0,Wunderground v.1.15,2013-08-21 11:15:00,
2013-08-21 06:20:00,70.4,67.6,29.77,South,182,3.0,4.0,91,0.00,,,0.00,0,Wunderground v.1.15,2013-08-21 11:20:00,
2013-08-21 06:25:00,70.3,67.5,29.77,SSE,161,4.0,4.0,91,0.00,,,0.00,0,Wunderground v.1.15,2013-08-21 11:25:00,
2013-08-21 06:30:00,70.2,67.4,29.77,South,181,3.0,4.0,91,0.00,,,0.00,0,Wunderground v.1.15,2013-08-21 11:30:00,
2013-08-21 06:35:00,70.2,67.8,29.77,SSE,153,4.0,5.0,92,0.00,,,0.00,0,Wunderground v.1.15,2013-08-21 11:35:00,
2013-08-21 06:45:00,69.9,67.5,29.78,SSE,166,6.0,6.0,92,0.00,,,0.00,9,Wunderground v.1.15,2013-08-21 11:45:00,
2013-08-21 06:50:00,69.9,67.5,29.79,SSE,153,4.0,4.0,92,0.00,,,0.00,11,Wunderground v.1.15,2013-08-21 11:50:00,
2013-08-21 06:55:00,69.7,67.3,29.79,SSE,153,2.0,4.0,92,0.00,,,0.00,14,Wunderground v.1.15,2013-08-21 11:55:00,
2013-08-21 07:00:00,69.7,67.3,29.80,SSE,166,2.0,3.0,92,0.00,,,0.00,19,Wunderground v.1.15,2013-08-21 12:00:00,
2013-08-21 07:05:00,69.8,67.4,29.80,SSW,196,3.0,3.0,92,0.00,,,0.00,23,Wunderground v.1.15,2013-08-21 12:05:00,
2013-08-21 07:15:00,70.1,67.7,29.80,SW,219,3.0,4.0,92,0.00,,,0.00,35,Wunderground v.1.15,2013-08-21 12:15:00,
2013-08-21 07:25:00,70.1,67.7,29.80,SW,223,2.0,4.0,92,0.00,,,0.00,63,Wunderground v.1.15,2013-08-21 12:25:00,
2013-08-21 07:30:00,70.2,67.8,29.81,South,188,3.0,3.0,92,0.00,,,0.00,76,Wunderground v.1.15,2013-08-21 12:30:00,
2013-08-21 07:35:00,70.3,67.9,29.81,South,182,2.0,3.0,92,0.00,,,0.00,79,Wunderground v.1.15,2013-08-21 12:35:00,
2013-08-21 07:40:00,70.4,68.0,29.81,SSW,204,2.0,4.0,92,0.00,,,0.00,76,Wunderground v.1.15,2013-08-21 12:40:00,
2013-08-21 07:45:00,70.6,68.2,29.81,SSW,202,3.0,4.0,92,0.00,,,0.00,113,Wunderground v.1.15,2013-08-21 12:45:00,
2013-08-21 07:55:00,71.2,68.4,29.81,SSW,200,1.0,3.0,91,0.00,,,0.00,179,Wunderground v.1.15,2013-08-21 12:55:00,
2013-08-21 08:00:00,71.5,68.7,29.81,SW,222,2.0,2.0,91,0.00,,,0.00,183,Wunderground v.1.15,2013-08-21 13:00:00,
2013-08-21 08:05:00,72.0,69.5,29.81,SSW,193,2.0,2.0,92,0.00,,,0.00,188,Wunderground v.1.15,2013-08-21 13:05:00,
2013-08-21 08:15:00,72.8,69.0,29.81,South,186,2.0,4.0,88,0.00,,,0.00,105,Wunderground v.1.15,2013-08-21 13:15:00,
2013-08-21 08:20:00,72.6,69.2,29.81,SW,217,3.0,3.0,89,0.00,,,0.00,105,Wunderground v.1.15,2013-08-21 13:20:00,
2013-08-21 08:25:00,72.6,69.5,29.81,SW,223,2.0,3.0,90,0.00,,,0.00,111,Wunderground v.1.15,2013-08-21 13:25:00,
2013-08-21 08:35:00,72.6,69.2,29.81,SSW,193,3.0,3.0,89,0.00,,,0.00,130,Wunderground v.1.15,2013-08-21 13:35:00,
2013-08-21 08:40:00,72.6,69.2,29.81,SSE,163,2.0,2.0,89,0.00,,,0.00,169,Wunderground v.1.15,2013-08-21 13:40:00,
2013-08-21 08:45:00,72.7,69.3,29.81,SSW,193,2.0,3.0,89,0.00,,,0.00,294,Wunderground v.1.15,2013-08-21 13:45:00,
2013-08-21 08:50:00,72.8,69.4,29.81,SSW,197,4.0,5.0,89,0.00,,,0.00,297,Wunderground v.1.15,2013-08-21 13:50:00,
2013-08-21 09:00:00,73.3,69.5,29.81,WSW,244,4.0,4.0,88,0.00,,,0.00,169,Wunderground v.1.15,2013-08-21 14:00:00,
2013-08-21 09:10:00,73.3,69.5,29.81,SW,220,5.0,5.0,88,0.00,,,0.00,202,Wunderground v.1.15,2013-08-21 14:10:00,
2013-08-21 09:20:00,73.8,69.7,29.81,SW,222,3.0,3.0,87,0.00,,,0.00,278,Wunderground v.1.15,2013-08-21 14:20:00,
2013-08-21 09:30:00,74.2,69.7,29.82,SW,217,4.0,5.0,86,0.00,,,0.00,262,Wunderground v.1.15,2013-08-21 14:30:00,
2013-08-21 09:35:00,74.4,69.9,29.82,SSW,211,5.0,7.0,86,0.00,,,0.00,239,Wunderground v.1.15,2013-08-21 14:35:00,
2013-08-21 09:45:00,74.7,70.2,29.82,SW,233,5.0,5.0,86,0.00,,,0.00,211,Wunderground v.1.15,2013-08-21 14:45:00,
2013-08-21 09:50:00,74.6,69.8,29.82,SW,227,5.0,5.0,85,0.00,,,0.00,285,Wunderground v.1.15,2013-08-21 14:50:00,
2013-08-21 09:55:00,74.5,69.7,29.82,SSW,211,7.0,7.0,85,0.00,,,0.00,299,Wunderground v.1.15,2013-08-21 14:55:00,
2013-08-21 10:00:00,75.0,70.2,29.82,SW,217,5.0,6.0,85,0.00,,,0.00,582,Wunderground v.1.15,2013-08-21 15:00:00,
2013-08-21 10:05:00,75.7,70.9,29.82,SW,224,4.0,6.0,85,0.00,,,0.00,538,Wunderground v.1.15,2013-08-21 15:05:00,
2013-08-21 10:15:00,76.5,70.2,29.82,SW,214,5.0,6.0,81,0.00,,,0.00,703,Wunderground v.1.15,2013-08-21 15:15:00,
2013-08-21 10:25:00,76.3,70.8,29.83,WSW,238,5.0,6.0,83,0.00,,,0.00,376,Wunderground v.1.15,2013-08-21 15:25:00,
2013-08-21 10:30:00,76.9,71.0,29.83,SW,217,3.0,3.0,82,0.00,,,0.00,338,Wunderground v.1.15,2013-08-21 15:30:00,
2013-08-21 10:35:00,76.8,70.5,29.83,WSW,251,4.0,8.0,81,0.00,,,0.00,257,Wunderground v.1.15,2013-08-21 15:35:00,
2013-08-21 10:40:00,76.5,70.2,29.83,SW,224,5.0,6.0,81,0.00,,,0.00,190,Wunderground v.1.15,2013-08-21 15:40:00,
2013-08-21 10:50:00,76.2,70.3,29.83,SSW,206,2.0,2.0,82,0.00,,,0.00,185,Wunderground v.1.15,2013-08-21 15:50:00,
2013-08-21 10:55:00,76.2,70.3,29.83,WSW,240,2.0,2.0,82,0.00,,,0.00,241,Wunderground v.1.15,2013-08-21 15:55:00,
2013-08-21 11:05:00,76.4,70.1,29.83,WSW,238,2.0,2.0,81,0.00,,,0.00,308,Wunderground v.1.15,2013-08-21 16:05:00,
2013-08-21 11:15:00,76.6,70.3,29.82,SSW,202,2.0,2.0,81,0.00,,,0.00,278,Wunderground v.1.15,2013-08-21 16:15:00,
2013-08-21 11:20:00,77.0,70.4,29.82,SSW,207,1.0,1.0,80,0.00,,,0.00,241,Wunderground v.1.15,2013-08-21 16:20:00,
2013-08-21 11:30:00,77.4,70.4,29.81,South,181,2.0,3.0,79,0.00,,,0.00,167,Wunderground v.1.15,2013-08-21 16:30:00,
2013-08-21 11:35:00,77.0,70.4,29.82,SSW,213,2.0,3.0,80,0.00,,,0.00,156,Wunderground v.1.15,2013-08-21 16:35:00,
2013-08-21 11:40:00,77.1,70.8,29.82,SSW,213,1.0,1.0,81,0.00,,,0.00,193,Wunderground v.1.15,2013-08-21 16:40:00,
2013-08-21 11:50:00,76.9,70.6,29.82,SW,224,2.0,5.0,81,0.00,,,0.00,121,Wunderground v.1.15,2013-08-21 16:50:00,
2013-08-21 11:55:00,76.1,70.9,29.84,WSW,245,5.0,5.0,84,0.00,,,0.00,125,Wunderground v.1.15,2013-08-21 16:55:00,
2013-08-21 12:00:00,75.8,71.0,29.84,WSW,238,4.0,4.0,85,0.00,,,0.00,118,Wunderground v.1.15,2013-08-21 17:00:00,
2013-08-21 12:05:00,75.8,71.0,29.84,SW,236,2.0,4.0,85,0.00,,,0.00,132,Wunderground v.1.15,2013-08-21 17:05:00,
2013-08-21 12:15:00,76.2,71.4,29.84,SW,226,2.0,2.0,85,0.00,,,0.00,190,Wunderground v.1.15,2013-08-21 17:15:00,
2013-08-21 12:25:00,76.4,71.2,29.84,South,173,2.0,2.0,84,0.00,,,0.00,230,Wunderground v.1.15,2013-08-21 17:25:00,
2013-08-21 12:30:00,76.6,71.4,29.84,WSW,241,2.0,2.0,84,0.00,,,0.00,265,Wunderground v.1.15,2013-08-21 17:30:00,
2013-08-21 12:35:00,76.6,71.0,29.84,WSW,240,3.0,3.0,83,0.00,,,0.00,294,Wunderground v.1.15,2013-08-21 17:35:00,
2013-08-21 12:40:00,76.7,71.1,29.85,WSW,248,3.0,3.0,83,0.00,,,0.00,279,Wunderground v.1.15,2013-08-21 17:40:00,
2013-08-21 12:50:00,76.8,71.2,29.85,SW,217,4.0,4.0,83,0.00,,,0.00,308,Wunderground v.1.15,2013-08-21 17:50:00,
2013-08-21 12:55:00,77.1,71.2,29.85,WSW,243,3.0,4.0,82,0.00,,,0.00,339,Wunderground v.1.15,2013-08-21 17:55:00,
2013-08-21 13:00:00,77.4,71.8,29.85,SW,219,3.0,4.0,83,0.00,,,0.00,283,Wunderground v.1.15,2013-08-21 18:00:00,
2013-08-21 13:05:00,77.3,71.4,29.86,SW,225,4.0,4.0,82,0.00,,,0.00,248,Wunderground v.1.15,2013-08-21 18:05:00,
2013-08-21 13:15:00,77.1,71.5,29.86,SSW,200,5.0,5.0,83,0.00,,,0.00,213,Wunderground v.1.15,2013-08-21 18:15:00,
2013-08-21 13:20:00,77.2,71.6,29.87,WSW,239,4.0,7.0,83,0.00,,,0.00,246,Wunderground v.1.15,2013-08-21 18:20:00,
2013-08-21 13:30:00,77.4,72.2,29.87,WSW,242,4.0,4.0,84,0.00,,,0.00,188,Wunderground v.1.15,2013-08-21 18:30:00,
2013-08-21 13:35:00,77.5,71.9,29.87,NE,34,3.0,4.0,83,0.00,,,0.00,178,Wunderground v.1.15,2013-08-21 18:35:00,
2013-08-21 13:45:00,77.4,71.8,29.87,West,273,3.0,3.0,83,0.00,,,0.00,149,Wunderground v.1.15,2013-08-21 18:45:00,
2013-08-21 13:50:00,77.5,71.9,29.86,WSW,245,2.0,2.0,83,0.00,,,0.00,146,Wunderground v.1.15,2013-08-21 18:50:00,
2013-08-21 14:00:00,77.6,72.0,29.86,West,281,1.0,1.0,83,0.00,,,0.00,121,Wunderground v.1.15,2013-08-21 19:00:00,
2013-08-21 14:05:00,77.5,71.9,29.86,West,279,1.0,1.0,83,0.00,,,0.00,127,Wunderground v.1.15,2013-08-21 19:05:00,
2013-08-21 14:15:00,77.4,72.2,29.87,NNW,348,2.0,4.0,84,0.00,,,0.00,79,Wunderground v.1.15,2013-08-21 19:15:00,
2013-08-21 14:20:00,77.3,72.4,29.86,North,349,2.0,3.0,85,0.00,,,0.00,139,Wunderground v.1.15,2013-08-21 19:20:00,
2013-08-21 14:25:00,77.2,72.3,29.86,NNE,29,3.0,5.0,85,0.00,,,0.00,153,Wunderground v.1.15,2013-08-21 19:25:00,
2013-08-21 14:35:00,77.0,72.1,29.86,NNE,28,4.0,4.0,85,0.00,,,0.00,127,Wunderground v.1.15,2013-08-21 19:35:00,
2013-08-21 14:40:00,77.0,72.5,29.86,ENE,63,3.0,4.0,86,0.00,,,0.00,121,Wunderground v.1.15,2013-08-21 19:40:00,
2013-08-21 14:45:00,77.0,72.1,29.86,NE,36,3.0,4.0,85,0.00,,,0.00,109,Wunderground v.1.15,2013-08-21 19:45:00,
2013-08-21 14:50:00,77.0,72.5,29.86,NE,51,2.0,2.0,86,0.00,,,0.00,120,Wunderground v.1.15,2013-08-21 19:50:00,
2013-08-21 15:00:00,76.7,72.5,29.84,ESE,116,4.0,4.0,87,0.00,,,0.00,160,Wunderground v.1.15,2013-08-21 20:00:00,
2013-08-21 15:05:00,76.7,72.9,29.84,East,89,4.0,4.0,88,0.00,,,0.00,229,Wunderground v.1.15,2013-08-21 20:05:00,
2013-08-21 15:15:00,77.0,73.5,29.85,SSE,149,4.0,7.0,89,0.00,,,0.00,272,Wunderground v.1.15,2013-08-21 20:15:00,
2013-08-21 15:25:00,77.9,74.1,29.85,South,190,4.0,4.0,88,0.00,,,0.00,316,Wunderground v.1.15,2013-08-21 20:25:00,
2013-08-21 15:35:00,78.7,74.2,29.86,West,275,3.0,4.0,86,0.00,,,0.00,350,Wunderground v.1.15,2013-08-21 20:35:00,
2013-08-21 15:40:00,79.2,73.9,29.86,SSW,205,3.0,3.0,84,0.00,,,0.00,710,Wunderground v.1.15,2013-08-21 20:40:00,
2013-08-21 15:45:00,79.6,74.3,29.86,SW,232,3.0,5.0,84,0.00,,,0.00,501,Wunderground v.1.15,2013-08-21 20:45:00,
2013-08-21 15:50:00,79.7,74.4,29.86,SW,230,2.0,2.0,84,0.00,,,0.00,751,Wunderground v.1.15,2013-08-21 20:50:00,
2013-08-21 16:00:00,81.2,74.4,29.86,SSE,167,2.0,4.0,80,0.00,,,0.00,721,Wunderground v.1.15,2013-08-21 21:00:00,
2013-08-21 16:05:00,81.1,74.7,29.86,SSE,158,2.0,4.0,81,0.00,,,0.00,236,Wunderground v.1.15,2013-08-21 21:05:00,
2013-08-21 16:15:00,81.1,74.3,29.87,SSW,195,1.0,3.0,80,0.00,,,0.00,227,Wunderground v.1.15,2013-08-21 21:15:00,
2013-08-21 16:20:00,80.4,74.0,29.87,SW,229,2.0,4.0,81,0.00,,,0.00,272,Wunderground v.1.15,2013-08-21 21:20:00,
2013-08-21 16:25:00,79.8,73.8,29.87,WSW,243,2.0,4.0,82,0.00,,,0.00,306,Wunderground v.1.15,2013-08-21 21:25:00,
2013-08-21 16:35:00,79.8,74.2,29.88,SW,227,2.0,4.0,83,0.00,,,0.00,216,Wunderground v.1.15,2013-08-21 21:35:00,
2013-08-21 16:40:00,79.9,74.3,29.88,SW,227,2.0,2.0,83,0.00,,,0.00,221,Wunderground v.1.15,2013-08-21 21:40:00,
2013-08-21 16:45:00,80.2,74.6,29.88,SW,226,1.0,2.0,83,0.00,,,0.00,188,Wunderground v.1.15,2013-08-21 21:45:00,
2013-08-21 16:50:00,80.2,74.6,29.88,WSW,248,1.0,3.0,83,0.00,,,0.00,160,Wunderground v.1.15,2013-08-21 21:50:00,
2013-08-21 17:00:00,79.6,74.3,29.88,SW,232,2.0,2.0,84,0.00,,,0.00,185,Wunderground v.1.15,2013-08-21 22:00:00,
2013-08-21 17:05:00,79.4,74.1,29.88,SSW,209,2.0,3.0,84,0.00,,,0.00,174,Wunderground v.1.15,2013-08-21 22:05:00,
2013-08-21 17:15:00,80.0,74.7,29.89,SW,225,1.0,2.0,84,0.00,,,0.00,241,Wunderground v.1.15,2013-08-21 22:15:00,
2013-08-21 17:20:00,80.3,74.7,29.89,SW,236,1.0,2.0,83,0.00,,,0.00,174,Wunderground v.1.15,2013-08-21 22:20:00,
2013-08-21 17:30:00,80.7,74.7,29.88,SSW,208,1.0,3.0,82,0.00,,,0.00,262,Wunderground v.1.15,2013-08-21 22:30:00,
2013-08-21 17:35:00,81.3,74.9,29.88,SSW,204,1.0,3.0,81,0.00,,,0.00,436,Wunderground v.1.15,2013-08-21 22:35:00,
2013-08-21 17:40:00,82.2,75.0,29.87,SSW,203,1.0,1.0,79,0.00,,,0.00,388,Wunderground v.1.15,2013-08-21 22:40:00,
2013-08-21 17:45:00,82.9,74.9,29.87,South,178,1.0,2.0,77,0.00,,,0.00,330,Wunderground v.1.15,2013-08-21 22:45:00,
2013-08-21 17:50:00,83.1,75.1,29.87,South,184,1.0,2.0,77,0.00,,,0.00,183,Wunderground v.1.15,2013-08-21 22:50:00,
2013-08-21 18:00:00,81.8,74.6,29.87,South,182,1.0,1.0,79,0.00,,,0.00,130,Wunderground v.1.15,2013-08-21 23:00:00,
2013-08-21 18:05:00,81.1,74.3,29.87,South,182,1.0,1.0,80,0.00,,,0.00,79,Wunderground v.1.15,2013-08-21 23:05:00,
2013-08-21 18:15:00,80.9,74.5,29.87,South,182,1.0,2.0,81,0.00,,,0.00,121,Wunderground v.1.15,2013-08-21 23:15:00,
2013-08-21 18:20:00,80.7,74.7,29.87,SSW,206,1.0,3.0,82,0.00,,,0.00,105,Wunderground v.1.15,2013-08-21 23:20:00,
2013-08-21 18:25:00,80.5,74.9,29.88,SSW,207,1.0,3.0,83,0.00,,,0.00,102,Wunderground v.1.15,2013-08-21 23:25:00,
2013-08-21 18:30:00,80.3,74.7,29.88,SSW,207,1.0,1.0,83,0.00,,,0.00,98,Wunderground v.1.15,2013-08-21 23:30:00,
2013-08-21 18:40:00,80.1,74.5,29.86,SSW,207,1.0,1.0,83,0.00,,,0.00,88,Wunderground v.1.15,2013-08-21 23:40:00,
2013-08-21 18:45:00,80.1,74.5,29.86,SSW,207,0.0,1.0,83,0.00,,,0.00,83,Wunderground v.1.15,2013-08-21 23:45:00,
2013-08-21 18:50:00,79.6,74.3,29.87,SW,215,1.0,3.0,84,0.00,,,0.00,72,Wunderground v.1.15,2013-08-21 23:50:00,
2013-08-21 18:55:00,79.2,74.6,29.88,SW,218,3.0,3.0,86,0.00,,,0.00,62,Wunderground v.1.15,2013-08-21 23:55:00,
2013-08-21 19:05:00,78.6,74.4,29.88,SSW,207,2.0,3.0,87,0.00,,,0.00,35,Wunderground v.1.15,2013-08-22 00:05:00,
2013-08-21 19:15:00,78.2,74.4,29.88,SW,215,2.0,2.0,88,0.00,,,0.00,42,Wunderground v.1.15,2013-08-22 00:15:00,
2013-08-21 19:20:00,78.2,74.4,29.89,SSW,198,1.0,2.0,88,0.00,,,0.00,39,Wunderground v.1.15,2013-08-22 00:20:00,
2013-08-21 19:25:00,77.9,74.4,29.88,SW,223,2.0,3.0,89,0.00,,,0.00,39,Wunderground v.1.15,2013-08-22 00:25:00,
2013-08-21 19:30:00,77.6,74.1,29.89,SW,226,3.0,4.0,89,0.00,,,0.00,37,Wunderground v.1.15,2013-08-22 00:30:00,
2013-08-21 19:40:00,77.3,73.8,29.88,SSW,209,2.0,2.0,89,0.00,,,0.00,25,Wunderground v.1.15,2013-08-22 00:40:00,
2013-08-21 19:45:00,77.1,73.6,29.88,SSW,209,2.0,2.0,89,0.00,,,0.00,19,Wunderground v.1.15,2013-08-22 00:45:00,
2013-08-21 19:50:00,76.9,73.4,29.88,SSW,195,2.0,2.0,89,0.00,,,0.00,11,Wunderground v.1.15,2013-08-22 00:50:00,
2013-08-21 19:55:00,76.7,73.2,29.88,SSW,195,2.0,2.0,89,0.00,,,0.00,7,Wunderground v.1.15,2013-08-22 00:55:00,
2013-08-21 20:05:00,76.3,73.1,29.88,SSW,196,1.0,2.0,90,0.00,,,0.00,0,Wunderground v.1.15,2013-08-22 01:05:00,
2013-08-21 20:15:00,76.0,73.2,29.87,SSW,196,0.0,1.0,91,0.00,,,0.00,0,Wunderground v.1.15,2013-08-22 01:15:00,
2013-08-21 20:20:00,75.8,73.0,29.88,SSW,196,0.0,0.0,91,0.00,,,0.00,0,Wunderground v.1.15,2013-08-22 01:20:00,
2013-08-21 20:25:00,75.7,73.2,29.88,SSW,196,0.0,0.0,92,0.00,,,0.00,0,Wunderground v.1.15,2013-08-22 01:25:00,
2013-08-21 20:35:00,75.6,73.1,29.88,SW,215,1.0,1.0,92,0.00,,,0.00,0,Wunderground v.1.15,2013-08-22 01:35:00,
2013-08-21 20:40:00,75.5,73.0,29.88,SW,215,1.0,1.0,92,0.00,,,0.00,0,Wunderground v.1.15,2013-08-22 01:40:00,
2013-08-21 20:45:00,75.3,72.8,29.88,SW,215,0.0,1.0,92,0.00,,,0.00,0,Wunderground v.1.15,2013-08-22 01:45:00,
2013-08-21 20:55:00,74.9,72.7,29.88,SW,215,0.0,0.0,93,0.00,,,0.00,0,Wunderground v.1.15,2013-08-22 01:55:00,
2013-08-21 21:00:00,74.9,72.7,29.88,WSW,247,0.0,1.0,93,0.00,,,0.00,0,Wunderground v.1.15,2013-08-22 02:00:00,
2013-08-21 21:05:00,74.8,72.6,29.88,WSW,247,0.0,1.0,93,0.00,,,0.00,0,Wunderground v.1.15,2013-08-22 02:05:00,
2013-08-21 21:15:00,74.4,72.2,29.89,WNW,302,1.0,1.0,93,0.00,,,0.00,0,Wunderground v.1.15,2013-08-22 02:15:00,
2013-08-21 21:20:00,74.2,72.4,29.89,WNW,302,0.0,0.0,94,0.00,,,0.00,0,Wunderground v.1.15,2013-08-22 02:20:00,
2013-08-21 21:25:00,74.2,72.4,29.90,WNW,302,0.0,0.0,94,0.00,,,0.00,0,Wunderground v.1.15,2013-08-22 02:25:00,
2013-08-21 21:35:00,74.0,72.2,29.91,WNW,302,0.0,0.0,94,0.00,,,0.00,0,Wunderground v.1.15,2013-08-22 02:35:00,
2013-08-21 21:40:00,73.9,72.1,29.91,WNW,302,0.0,0.0,94,0.00,,,0.00,0,Wunderground v.1.15,2013-08-22 02:40:00,
2013-08-21 21:45:00,73.9,72.1,29.91,WNW,302,0.0,0.0,94,0.00,,,0.00,0,Wunderground v.1.15,2013-08-22 02:45:00,
2013-08-21 21:50:00,73.8,72.0,29.91,WNW,302,0.0,1.0,94,0.00,,,0.00,0,Wunderground v.1.15,2013-08-22 02:50:00,
2013-08-21 22:00:00,74.0,72.5,29.91,WNW,302,1.0,1.0,95,0.00,,,0.00,0,Wunderground v.1.15,2013-08-22 03:00:00,
2013-08-21 22:05:00,74.2,72.7,29.90,WNW,302,0.0,1.0,95,0.00,,,0.00,0,Wunderground v.1.15,2013-08-22 03:05:00,
2013-08-21 22:15:00,74.4,72.6,29.90,WNW,302,0.0,0.0,94,0.00,,,0.00,0,Wunderground v.1.15,2013-08-22 03:15:00,
2013-08-21 22:20:00,74.4,72.6,29.90,WNW,302,0.0,0.0,94,0.00,,,0.00,0,Wunderground v.1.15,2013-08-22 03:20:00,
2013-08-21 22:25:00,74.4,72.6,29.90,NNW,344,0.0,0.0,94,0.00,,,0.00,0,Wunderground v.1.15,2013-08-22 03:25:00,
2013-08-21 22:35:00,74.2,72.4,29.89,East,84,2.0,5.0,94,0.00,,,0.00,0,Wunderground v.1.15,2013-08-22 03:35:00,
2013-08-21 22:40:00,74.2,72.4,29.88,East,81,3.0,3.0,94,0.00,,,0.00,0,Wunderground v.1.15,2013-08-22 03:40:00,
2013-08-21 22:45:00,74.4,72.6,29.88,East,100,4.0,5.0,94,0.00,,,0.00,0,Wunderground v.1.15,2013-08-22 03:45:00,
2013-08-21 22:50:00,74.5,72.7,29.88,East,89,4.0,5.0,94,0.00,,,0.00,0,Wunderground v.1.15,2013-08-22 03:50:00,
2013-08-21 23:00:00,74.8,72.6,29.88,ENE,75,4.0,4.0,93,0.00,,,0.00,0,Wunderground v.1.15,2013-08-22 04:00:00,
2013-08-21 23:05:00,74.9,72.7,29.88,ENE,63,3.0,4.0,93,0.00,,,0.00,0,Wunderground v.1.15,2013-08-22 04:05:00,
2013-08-21 23:10:00,74.9,72.7,29.89,ENE,76,3.0,3.0,93,0.00,,,0.00,0,Wunderground v.1.15,2013-08-22 04:10:00,
2013-08-21 23:15:00,75.0,72.8,29.90,ENE,76,2.0,3.0,93,0.00,,,0.00,0,Wunderground v.1.15,2013-08-22 04:15:00,
2013-08-21 23:20:00,74.9,72.4,29.91,South,180,1.0,4.0,92,0.00,,,0.00,0,Wunderground v.1.15,2013-08-22 04:20:00,
2013-08-21 23:25:00,74.0,71.5,29.92,SSW,208,3.0,4.0,92,0.00,,,0.00,0,Wunderground v.1.15,2013-08-22 04:25:00,
2013-08-21 23:35:00,73.1,71.3,29.92,South,174,4.0,4.0,94,0.00,,,0.00,0,Wunderground v.1.15,2013-08-22 04:35:00,
2013-08-21 23:40:00,73.0,71.5,29.92,South,173,3.0,3.0,95,0.00,,,0.00,0,Wunderground v.1.15,2013-08-22 04:40:00,
2013-08-21 23:45:00,73.1,71.6,29.93,South,173,1.0,3.0,95,0.00,,,0.00,0,Wunderground v.1.15,2013-08-22 04:45:00,
2013-08-21 23:50:00,73.1,71.6,29.93,SSE,153,1.0,2.0,95,0.00,,,0.00,0,Wunderground v.1.15,2013-08-22 04:50:00,